Time;durP1;ratioP1;P1;durP2;ratioP2;P2;SDS_P1;SDS_P2;PMS_P1;PMS_P2;Temp;Humidity;BMP_temperature;BMP_pressure;BME280_temperature;BME280_humidity;BME280_pressure;Samples;Min_cycle;Max_cycle;Signal;HPM_P1;HPM_P2
2022/09/30 00:01:49;;;;;;;17.77;10.40;;;;;;;15.22;57.51;99177.78;5094968;28;20054;-66
2022/09/30 00:04:20;;;;;;;17.45;10.13;;;;;;;15.27;57.53;99166.50;5078507;28;20071;-68
2022/09/30 00:06:46;;;;;;;16.75;9.98;;;;;;;15.23;57.33;99168.72;5096649;28;20101;-66
2022/09/30 00:09:12;;;;;;;17.58;9.63;;;;;;;15.17;57.45;99180.22;5098271;28;20156;-66
2022/09/30 00:11:39;;;;;;;16.42;9.80;;;;;;;15.13;57.44;99174.44;5079138;28;20180;-66
2022/09/30 00:14:08;;;;;;;15.55;10.05;;;;;;;15.04;57.47;99175.63;5112587;28;20118;-66
2022/09/30 00:16:35;;;;;;;21.25;11.52;;;;;;;15.18;57.44;99182.69;5078644;28;20051;-66
2022/09/30 00:19:03;;;;;;;16.98;9.05;;;;;;;14.90;57.32;99183.75;5095058;28;20554;-67
2022/09/30 00:21:28;;;;;;;17.73;9.43;;;;;;;15.01;57.16;99183.22;5094610;28;20154;-66
2022/09/30 00:23:54;;;;;;;17.83;10.13;;;;;;;14.95;56.92;99187.50;5112213;28;20511;-68
2022/09/30 00:26:21;;;;;;;16.83;10.13;;;;;;;15.17;56.79;99193.59;5094625;28;20465;-68
2022/09/30 00:28:53;;;;;;;16.23;10.00;;;;;;;15.27;56.56;99199.41;5061856;28;20092;-65
2022/09/30 00:31:20;;;;;;;17.38;9.65;;;;;;;15.20;56.81;99201.22;5061243;28;20438;-65
2022/09/30 00:36:36;;;;;;;18.55;12.15;;;;;;;15.20;56.70;99196.72;5097374;28;20043;-66
2022/09/30 00:39:04;;;;;;;22.23;12.73;;;;;;;14.98;56.80;99170.22;5094616;28;20054;-65
2022/09/30 00:41:30;;;;;;;21.58;12.98;;;;;;;14.97;57.08;99192.66;5113081;28;20031;-66
2022/09/30 00:43:56;;;;;;;22.08;13.20;;;;;;;14.94;57.03;99196.56;5094583;28;20144;-66
2022/09/30 00:46:40;;;;;;;24.15;14.25;;;;;;;14.92;56.75;99203.09;5094397;28;20066;-65
2022/09/30 00:49:19;;;;;;;21.42;12.80;;;;;;;15.20;56.27;99203.91;5094721;28;20051;-66
2022/09/30 00:51:49;;;;;;;23.95;13.00;;;;;;;15.09;56.61;99207.13;5078004;28;20134;-65
2022/09/30 00:54:25;;;;;;;22.27;12.63;;;;;;;15.04;56.94;99212.22;5078127;28;20062;-65
2022/09/30 00:56:59;;;;;;;20.27;12.25;;;;;;;14.95;56.79;99206.22;5061133;28;20032;-65
2022/09/30 00:59:35;;;;;;;23.48;12.50;;;;;;;15.00;56.99;99217.16;5112434;28;20044;-66
2022/09/30 01:02:00;;;;;;;21.92;12.50;;;;;;;14.65;57.24;99211.97;5078600;28;20130;-66
2022/09/30 01:04:28;;;;;;;20.50;11.75;;;;;;;14.85;57.24;99200.38;5060803;28;20134;-65
2022/09/30 01:06:54;;;;;;;21.67;12.23;;;;;;;14.62;57.94;99201.69;5077390;28;20104;-65
2022/09/30 01:09:20;;;;;;;19.02;11.93;;;;;;;14.65;57.76;99203.97;5097391;28;20043;-65
2022/09/30 01:11:46;;;;;;;16.85;11.05;;;;;;;14.81;57.47;99196.47;5116494;28;20055;-65
2022/09/30 01:14:15;;;;;;;17.52;10.90;;;;;;;14.85;57.50;99196.91;5077693;28;20046;-68
2022/09/30 01:16:50;;;;;;;18.25;10.30;;;;;;;14.89;57.30;99208.84;5079742;28;20035;-66
2022/09/30 01:19:34;;;;;;;21.92;10.45;;;;;;;14.87;57.75;99206.38;5096524;28;20062;-65
2022/09/30 01:22:45;;;;;;;18.23;9.90;;;;;;;15.05;56.76;99216.56;5097918;28;20055;-65
2022/09/30 01:25:41;;;;;;;14.98;9.93;;;;;;;14.98;57.23;99205.84;5016807;28;20077;-65
2022/09/30 01:28:41;;;;;;;17.73;10.43;;;;;;;14.97;57.16;99214.06;5033319;28;20100;-65
2022/09/30 01:31:10;;;;;;;18.05;10.68;;;;;;;14.77;57.73;99205.06;5024741;28;20052;-66
2022/09/30 01:33:41;;;;;;;14.60;10.00;;;;;;;14.85;57.69;99211.06;5115703;28;20043;-66
2022/09/30 01:36:10;;;;;;;17.85;10.68;;;;;;;14.81;57.86;99211.66;5098453;28;20054;-66
2022/09/30 01:38:50;;;;;;;20.90;11.35;;;;;;;14.72;57.59;99194.97;5115548;28;20055;-66
2022/09/30 01:41:32;;;;;;;18.35;10.77;;;;;;;14.78;57.94;99226.25;5081056;28;20502;-65
2022/09/30 01:44:16;;;;;;;17.55;10.55;;;;;;;14.54;58.09;99226.69;5099521;28;20035;-65
2022/09/30 01:47:16;;;;;;;19.98;11.90;;;;;;;14.83;57.56;99229.19;5100223;28;20043;-65
2022/09/30 01:49:45;;;;;;;17.40;11.03;;;;;;;14.67;57.85;99215.25;5072827;28;20054;-65
2022/09/30 01:52:45;;;;;;;17.83;10.40;;;;;;;14.70;58.01;99221.06;5097466;28;20054;-66
2022/09/30 01:55:25;;;;;;;17.35;10.30;;;;;;;14.72;57.59;99220.84;5097458;28;20035;-65
2022/09/30 01:58:03;;;;;;;18.20;11.40;;;;;;;14.80;57.37;99226.91;5097828;28;20092;-67
2022/09/30 02:00:31;;;;;;;16.58;10.38;;;;;;;14.69;57.68;99222.09;5080688;28;20047;-66
2022/09/30 02:03:19;;;;;;;16.63;9.98;;;;;;;14.70;57.69;99221.06;5080326;28;20478;-67
2022/09/30 02:06:01;;;;;;;16.15;9.35;;;;;;;14.78;57.50;99212.91;5114069;28;20220;-66
2022/09/30 02:08:42;;;;;;;15.27;10.05;;;;;;;14.57;57.71;99207.59;5063584;28;20036;-67
2022/09/30 02:11:13;;;;;;;17.73;9.82;;;;;;;14.68;57.62;99199.03;5096789;28;20062;-67
2022/09/30 02:13:41;;;;;;;;;;;;;;;14.77;57.21;99197.88;5081024;28;20480;-67
2022/09/30 02:16:41;;;;;;;19.40;10.75;;;;;;;14.56;57.97;99197.91;5101255;28;19920;-67
2022/09/30 02:19:19;;;;;;;14.43;9.95;;;;;;;14.62;57.80;99213.16;5097884;28;20066;-67
2022/09/30 02:21:52;;;;;;;19.40;11.10;;;;;;;14.48;58.05;99210.59;5096954;28;20086;-66
2022/09/30 02:24:24;;;;;;;14.85;10.68;;;;;;;14.48;58.17;99215.94;5080156;28;20044;-66
2022/09/30 02:26:52;;;;;;;21.30;10.80;;;;;;;14.42;58.15;99216.72;5114399;28;20073;-66
2022/09/30 02:29:23;;;;;;;15.90;10.25;;;;;;;14.40;58.52;99214.25;5079924;28;20039;-66
2022/09/30 02:31:52;;;;;;;16.75;10.35;;;;;;;14.45;58.11;99219.81;5080193;28;20062;-66
2022/09/30 02:34:23;;;;;;;21.58;10.55;;;;;;;14.37;58.28;99213.78;5080164;28;20100;-66
2022/09/30 02:36:54;;;;;;;;;;;;;;;14.66;57.36;99219.81;5097054;28;20070;-68
2022/09/30 02:39:44;;;;;;;16.67;9.35;;;;;;;14.54;57.86;99217.84;5097043;28;19928;-66
2022/09/30 02:42:26;;;;;;;18.48;10.48;;;;;;;14.45;57.78;99208.31;5116237;28;20066;-66
2022/09/30 02:44:52;;;;;;;17.00;9.30;;;;;;;14.36;57.88;99217.50;5098032;28;20660;-66
2022/09/30 02:47:25;;;;;;;17.00;9.48;;;;;;;14.40;58.06;99216.06;5096959;28;20048;-66
2022/09/30 02:49:59;;;;;;;19.30;10.00;;;;;;;14.44;58.11;99204.81;5079816;28;20086;-66
2022/09/30 02:52:32;;;;;;;17.20;9.82;;;;;;;14.53;57.96;99200.16;5096271;28;20362;-66
2022/09/30 02:55:14;;;;;;;13.38;9.73;;;;;;;14.55;57.58;99209.63;5096707;28;20064;-68
2022/09/30 02:57:48;;;;;;;15.20;9.35;;;;;;;14.58;57.25;99219.09;5062334;28;20130;-66
2022/09/30 03:00:15;;;;;;;12.38;9.13;;;;;;;14.37;57.28;99203.09;5096026;28;20047;-66
2022/09/30 03:02:41;;;;;;;12.02;8.45;;;;;;;14.46;57.19;99212.63;5095943;28;20051;-66
2022/09/30 03:05:08;;;;;;;13.32;9.57;;;;;;;14.59;56.88;99224.25;5095884;28;20471;-68
2022/09/30 03:07:34;;;;;;;13.50;9.25;;;;;;;14.50;57.08;99228.09;5078849;28;20046;-67
2022/09/30 03:10:00;;;;;;;13.73;9.10;;;;;;;14.38;57.02;99218.94;5079128;28;20150;-67
2022/09/30 03:12:40;;;;;;;13.85;8.65;;;;;;;14.71;56.73;99230.75;5096507;28;20043;-66
2022/09/30 03:15:07;;;;;;;13.20;8.48;;;;;;;14.38;56.69;99223.44;5096082;28;20055;-66
2022/09/30 03:17:54;;;;;;;12.88;8.30;;;;;;;14.71;56.51;99219.22;5095608;28;20086;-65
2022/09/30 03:21:01;;;;;;;14.88;8.88;;;;;;;14.55;56.62;99223.00;5095695;28;20040;-66
2022/09/30 03:23:42;;;;;;;12.32;8.55;;;;;;;14.76;56.14;99227.50;5032452;28;20040;-65
2022/09/30 03:26:33;;;;;;;11.55;8.88;;;;;;;14.73;56.23;99228.69;5081131;28;20470;-66
2022/09/30 03:29:07;;;;;;;11.75;8.60;;;;;;;14.34;56.66;99219.53;5081907;28;20047;-67
2022/09/30 03:31:52;;;;;;;11.65;8.18;;;;;;;14.70;56.36;99228.25;5094630;28;20444;-66
2022/09/30 03:34:40;;;;;;;10.45;7.85;;;;;;;14.62;56.15;99242.56;5095790;28;20039;-66
2022/09/30 03:37:25;;;;;;;12.35;7.65;;;;;;;14.35;56.42;99237.19;5078524;28;20134;-66
2022/09/30 03:39:58;;;;;;;14.15;7.97;;;;;;;14.72;55.98;99244.91;5095428;28;20047;-65
2022/09/30 03:42:37;;;;;;;12.18;7.45;;;;;;;14.57;56.18;99241.50;5113562;28;20044;-66
2022/09/30 03:45:10;;;;;;;15.23;8.05;;;;;;;14.43;56.60;99242.41;5113103;28;20053;-67
2022/09/30 03:47:43;;;;;;;12.80;7.55;;;;;;;14.58;55.92;99241.31;5078593;28;20042;-66
2022/09/30 03:50:13;;;;;;;16.20;8.30;;;;;;;14.48;56.44;99240.00;5078265;28;20043;-66
2022/09/30 03:52:39;;;;;;;13.77;8.45;;;;;;;14.26;56.79;99239.19;5078776;28;20045;-66
2022/09/30 03:55:10;;;;;;;12.68;7.90;;;;;;;14.33;56.56;99242.72;5078886;28;20043;-66
2022/09/30 03:57:36;;;;;;;13.68;8.27;;;;;;;14.27;56.82;99234.69;5062438;28;20044;-66
2022/09/30 04:00:04;;;;;;;15.43;9.18;;;;;;;14.38;56.52;99245.66;5061815;28;20047;-68
2022/09/30 04:02:31;;;;;;;13.40;8.00;;;;;;;14.23;56.59;99228.00;5113250;28;20043;-67
2022/09/30 04:04:57;;;;;;;20.48;8.75;;;;;;;14.14;56.76;99226.50;5061654;28;20043;-66
2022/09/30 04:07:23;;;;;;;13.48;7.60;;;;;;;14.24;56.72;99227.84;5078864;28;20111;-66
2022/09/30 04:09:49;;;;;;;17.23;9.05;;;;;;;14.17;56.67;99226.09;5094862;28;20142;-68
2022/09/30 04:12:15;;;;;;;14.38;7.90;;;;;;;14.15;56.56;99214.78;5077948;28;20040;-68
2022/09/30 04:14:40;;;;;;;15.75;8.98;;;;;;;14.13;56.45;99204.28;5061443;28;20054;-67
2022/09/30 04:17:06;;;;;;;15.07;8.63;;;;;;;14.04;56.64;99209.97;5095196;28;20048;-71
2022/09/30 04:19:37;;;;;;;13.48;7.70;;;;;;;14.36;56.23;99225.50;5078934;28;20462;-72
2022/09/30 04:22:03;;;;;;;18.75;8.73;;;;;;;14.24;56.38;99221.66;5092192;28;20056;-76
2022/09/30 04:24:29;;;;;;;11.23;7.32;;;;;;;14.37;55.78;99224.47;5074881;28;20052;-72
2022/09/30 04:26:54;;;;;;;13.13;7.25;;;;;;;14.52;55.50;99227.88;5091829;28;20050;-72
2022/09/30 04:29:20;;;;;;;13.95;7.40;;;;;;;14.54;55.18;99225.88;5041742;28;20104;-73
2022/09/30 04:31:46;;;;;;;13.43;7.60;;;;;;;14.50;55.83;99229.97;5058634;28;20362;-72
2022/09/30 04:34:11;;;;;;;12.20;7.55;;;;;;;14.62;55.27;99244.44;5058274;28;20044;-72
2022/09/30 04:36:37;;;;;;;17.65;7.20;;;;;;;14.64;55.22;99227.19;5046623;28;20043;-76
2022/09/30 04:39:03;;;;;;;11.60;7.07;;;;;;;14.78;55.01;99223.59;5075397;28;20048;-71
2022/09/30 04:41:31;;;;;;;11.18;7.40;;;;;;;14.86;54.63;99217.25;5042265;28;20040;-74
2022/09/30 04:43:57;;;;;;;13.27;7.05;;;;;;;14.96;54.63;99226.59;5096290;28;20052;-75
2022/09/30 04:46:22;;;;;;;13.88;7.15;;;;;;;14.97;54.23;99222.06;5045578;28;20089;-74
2022/09/30 04:48:49;;;;;;;12.32;6.68;;;;;;;14.88;54.17;99202.66;5040028;28;20533;-77
2022/09/30 04:51:17;;;;;;;9.75;6.63;;;;;;;15.19;54.28;99245.06;5042056;28;20502;-74
2022/09/30 04:53:44;;;;;;;11.40;6.95;;;;;;;15.23;53.86;99244.47;5089383;28;20063;-81
2022/09/30 04:56:10;;;;;;;10.68;6.80;;;;;;;15.30;53.60;99249.84;5080256;28;20047;-76
2022/09/30 04:58:36;;;;;;;13.90;6.95;;;;;;;15.07;53.81;99222.53;5094681;28;20411;-74
2022/09/30 05:01:07;;;;;;;10.35;6.63;;;;;;;15.34;53.42;99245.75;5056885;28;20048;-74
2022/09/30 05:03:33;;;;;;;9.25;6.43;;;;;;;15.15;54.28;99246.47;5058718;28;20055;-78
2022/09/30 05:06:00;;;;;;;11.05;6.93;;;;;;;15.05;53.54;99197.84;5042974;28;20044;-80
2022/09/30 05:08:26;;;;;;;11.63;6.70;;;;;;;15.40;53.61;99258.38;5028191;28;20048;-76
2022/09/30 05:10:56;;;;;;;13.68;6.70;;;;;;;15.45;53.29;99250.59;5056694;28;20620;-75
2022/09/30 05:13:33;;;;;;;13.00;7.65;;;;;;;15.65;53.18;99261.38;5055401;28;20055;-76
2022/09/30 05:16:00;;;;;;;11.70;6.82;;;;;;;15.37;53.37;99257.91;5078418;28;20155;-78
2022/09/30 05:18:27;;;;;;;15.70;7.40;;;;;;;15.39;53.47;99262.06;5054867;28;20078;-78
2022/09/30 05:20:53;;;;;;;12.68;6.90;;;;;;;15.39;53.74;99250.53;5069560;28;20063;-77
2022/09/30 05:23:20;;;;;;;8.90;7.00;;;;;;;15.37;53.73;99253.38;5072038;28;20639;-73
2022/09/30 05:25:46;;;;;;;12.45;6.55;;;;;;;15.44;53.12;99240.88;5041852;28;20052;-75
2022/09/30 05:28:12;;;;;;;11.13;6.60;;;;;;;15.31;53.48;99266.72;5049987;28;20350;-74
2022/09/30 05:30:40;;;;;;;10.93;6.70;;;;;;;15.71;53.16;99268.63;5052090;28;20043;-74
2022/09/30 05:33:07;;;;;;;14.55;6.97;;;;;;;15.46;53.68;99260.25;5086585;28;20047;-74
2022/09/30 05:35:33;;;;;;;10.85;6.95;;;;;;;15.37;53.58;99261.41;5053558;28;20132;-75
2022/09/30 05:38:00;;;;;;;11.23;7.05;;;;;;;15.65;53.55;99272.09;5071404;28;20051;-74
2022/09/30 05:40:26;;;;;;;12.40;6.10;;;;;;;15.38;53.51;99272.97;5030362;28;20040;-74
2022/09/30 05:42:51;;;;;;;13.02;7.25;;;;;;;15.38;53.86;99257.75;5038955;28;20062;-75
2022/09/30 05:45:17;;;;;;;11.48;6.97;;;;;;;15.75;53.53;99273.38;5054366;28;20471;-74
2022/09/30 05:47:50;;;;;;;14.02;6.45;;;;;;;16.11;52.25;99270.41;5064744;28;20057;-74
2022/09/30 05:50:16;;;;;;;11.25;7.30;;;;;;;15.96;52.23;99270.56;5060480;28;20052;-75
2022/09/30 05:52:41;;;;;;;14.23;7.68;;;;;;;15.94;52.42;99264.59;5027699;28;20051;-75
2022/09/30 05:55:08;;;;;;;17.17;7.88;;;;;;;16.07;51.96;99263.78;5070123;28;20508;-76
2022/09/30 05:57:35;;;;;;;8.45;6.15;;;;;;;16.19;51.74;99254.97;5057005;28;20078;-76
2022/09/30 06:00:01;;;;;;;11.38;7.50;;;;;;;15.87;52.43;99250.34;5039676;28;20086;-75
2022/09/30 06:02:27;;;;;;;14.38;7.15;;;;;;;16.04;52.30;99250.78;5073730;28;20048;-79
2022/09/30 06:04:54;;;;;;;10.35;6.35;;;;;;;16.05;52.22;99250.59;5024232;28;20044;-79
2022/09/30 06:07:19;;;;;;;12.65;6.25;;;;;;;16.26;51.39;99247.78;5040587;28;20549;-78
2022/09/30 06:09:46;;;;;;;8.95;6.13;;;;;;;16.17;51.84;99230.25;5039684;28;20051;-79
2022/09/30 06:12:12;;;;;;;11.00;6.32;;;;;;;16.48;51.12;99245.78;5039630;28;20053;-79
2022/09/30 06:14:38;;;;;;;13.15;7.45;;;;;;;16.27;51.36;99233.34;5041942;28;20181;-80
2022/09/30 06:17:05;;;;;;;13.60;7.18;;;;;;;16.45;51.30;99249.66;5041484;28;20144;-78
2022/09/30 06:19:31;;;;;;;16.88;7.85;;;;;;;16.60;51.09;99257.53;5024623;28;20135;-81
2022/09/30 06:21:59;;;;;;;12.10;6.70;;;;;;;17.15;49.89;99250.88;5057306;28;20090;-79
2022/09/30 06:24:25;;;;;;;9.50;6.15;;;;;;;17.16;49.49;99260.59;5039567;28;20039;-79
2022/09/30 06:26:52;;;;;;;10.07;6.10;;;;;;;17.42;49.02;99263.22;5024966;28;20045;-80
2022/09/30 06:29:21;;;;;;;10.68;6.13;;;;;;;17.70;48.16;99263.75;5043096;28;20044;-78
2022/09/30 06:31:48;;;;;;;12.40;6.13;;;;;;;18.08;47.88;99264.66;5075383;28;20101;-79
2022/09/30 06:34:13;;;;;;;14.48;6.20;;;;;;;18.01;47.58;99274.59;5042477;28;20068;-79
2022/09/30 06:36:39;;;;;;;8.40;5.32;;;;;;;17.79;47.31;99278.63;5023492;28;20111;-74
2022/09/30 06:39:06;;;;;;;9.35;5.85;;;;;;;18.01;47.74;99271.91;5023515;28;20041;-76
2022/09/30 06:41:32;;;;;;;12.13;5.45;;;;;;;17.92;47.00;99265.97;5058353;28;20041;-79
2022/09/30 06:43:59;;;;;;;13.07;5.25;;;;;;;18.06;47.03;99258.66;5025155;28;20142;-81
2022/09/30 06:46:25;;;;;;;14.48;5.72;;;;;;;18.43;46.67;99266.72;5073878;28;20482;-81
2022/09/30 06:48:57;;;;;;;9.50;5.40;;;;;;;18.90;46.18;99275.25;5025704;28;20040;-78
2022/09/30 06:51:28;;;;;;;9.15;5.28;;;;;;;19.01;45.61;99275.38;5075422;28;20040;-81
2022/09/30 06:53:55;;;;;;;10.30;5.55;;;;;;;19.06;45.32;99270.16;5056314;28;20040;-79
2022/09/30 06:56:20;;;;;;;12.27;5.57;;;;;;;19.32;44.92;99264.56;5055756;28;20048;-79
2022/09/30 06:58:46;;;;;;;13.70;5.82;;;;;;;19.37;44.39;99269.28;5027774;28;20055;-77
2022/09/30 07:01:13;;;;;;;8.25;5.25;;;;;;;19.67;44.42;99262.91;5029607;28;20422;-81
2022/09/30 07:03:43;;;;;;;13.57;6.13;;;;;;;20.20;43.57;99276.59;5058502;28;20044;-81
2022/09/30 07:06:09;;;;;;;12.73;5.47;;;;;;;20.16;43.06;99277.28;5078445;28;20060;-81
2022/09/30 07:08:38;;;;;;;13.40;5.95;;;;;;;20.45;43.20;99277.25;5059446;28;20108;-75
2022/09/30 07:11:13;;;;;;;17.35;5.82;;;;;;;21.67;41.02;99282.66;5061296;28;20048;-80
2022/09/30 07:13:44;;;;;;;11.40;5.60;;;;;;;22.66;38.63;99269.53;5023254;28;20044;-84
2022/09/30 07:16:14;;;;;;;10.40;6.00;;;;;;;22.71;38.05;99293.97;5058485;28;20033;-84
2022/09/30 07:18:46;;;;;;;17.60;6.50;;;;;;;23.19;37.66;99288.00;5059569;28;20475;-83
2022/09/30 07:21:14;;;;;;;8.85;5.65;;;;;;;24.37;35.71;99288.28;5034932;28;20486;-75
2022/09/30 07:23:46;;;;;;;12.30;6.00;;;;;;;24.91;34.23;99281.75;5042985;28;20038;-81
2022/09/30 07:26:17;;;;;;;14.50;5.57;;;;;;;25.61;33.01;99279.56;5057852;28;20512;-82
2022/09/30 07:28:45;;;;;;;11.32;5.47;;;;;;;26.73;31.85;99270.72;5024802;28;20067;-82
2022/09/30 07:31:19;;;;;;;13.50;5.97;;;;;;;28.07;29.08;99259.91;5055696;28;20505;-81
2022/09/30 07:33:51;;;;;;;9.80;5.47;;;;;;;28.37;29.13;99254.28;5071157;28;20135;-81
2022/09/30 07:36:26;;;;;;;12.48;6.00;;;;;;;28.63;28.31;99259.31;5071990;28;20295;-79
2022/09/30 07:38:52;;;;;;;8.93;5.60;;;;;;;28.03;29.14;99260.44;5064751;28;20078;-80
2022/09/30 07:41:23;;;;;;;12.40;6.03;;;;;;;27.97;29.15;99258.84;5018483;28;20056;-80
2022/09/30 07:43:49;;;;;;;14.10;6.45;;;;;;;27.70;29.31;99265.75;5054558;28;20040;-78
2022/09/30 07:46:23;;;;;;;18.33;6.13;;;;;;;26.95;30.76;99257.66;5018420;28;20048;-78
2022/09/30 07:48:51;;;;;;;11.88;6.30;;;;;;;26.01;32.18;99266.19;5054529;28;20089;-83
2022/09/30 07:51:23;;;;;;;20.13;6.72;;;;;;;25.42;33.03;99262.06;5006353;28;20071;-83
2022/09/30 07:54:00;;;;;;;12.35;7.10;;;;;;;24.72;34.55;99242.50;5018172;28;20040;-80
2022/09/30 07:56:28;;;;;;;11.02;7.47;;;;;;;24.49;35.41;99246.31;5036410;28;20100;-81
2022/09/30 07:58:58;;;;;;;12.32;6.93;;;;;;;24.97;34.83;99247.31;5053522;28;20096;-80
2022/09/30 08:01:28;;;;;;;13.18;6.97;;;;;;;24.92;34.94;99243.44;5074895;28;20048;-82
2022/09/30 08:03:56;;;;;;;11.02;6.88;;;;;;;25.27;34.48;99253.78;5057641;28;20106;-80
2022/09/30 08:06:25;;;;;;;14.38;7.70;;;;;;;25.48;33.90;99255.56;5037726;28;20049;-80
2022/09/30 08:08:54;;;;;;;17.38;6.57;;;;;;;26.75;32.19;99257.66;5055259;28;20040;-77
2022/09/30 08:11:21;;;;;;;13.15;6.45;;;;;;;27.97;30.26;99260.75;5039870;28;20068;-81
2022/09/30 08:13:56;;;;;;;10.93;6.18;;;;;;;29.79;27.36;99271.97;5055833;28;20044;-81
2022/09/30 08:16:24;;;;;;;11.32;6.78;;;;;;;30.88;25.41;99275.16;5073612;28;20044;-79
2022/09/30 08:18:55;;;;;;;12.70;6.88;;;;;;;31.26;25.07;99258.59;5037157;28;20048;-81
2022/09/30 08:21:22;;;;;;;10.48;7.07;;;;;;;30.25;26.37;99265.66;5031249;28;20058;-80
2022/09/30 08:23:48;;;;;;;15.30;7.95;;;;;;;30.01;26.97;99253.06;5062875;28;20130;-82
2022/09/30 08:26:15;;;;;;;17.85;6.60;;;;;;;30.44;26.39;99262.91;5046376;28;20039;-85
2022/09/30 08:28:42;;;;;;;20.60;7.45;;;;;;;31.11;25.97;99268.72;5045870;28;20138;-83
2022/09/30 08:31:10;;;;;;;18.17;7.70;;;;;;;31.62;24.83;99263.16;5065910;28;20160;-83
2022/09/30 08:33:38;;;;;;;15.05;7.75;;;;;;;31.61;24.98;99253.31;5078160;28;20051;-80
2022/09/30 08:36:17;;;;;;;13.05;8.65;;;;;;;30.39;26.05;99252.03;5078436;28;20066;-81
2022/09/30 08:38:43;;;;;;;13.88;9.10;;;;;;;28.55;28.76;99251.75;5092925;28;20043;-85
2022/09/30 08:41:40;;;;;;;21.45;9.70;;;;;;;27.73;30.34;99236.00;5045053;28;20054;-80
2022/09/30 08:44:24;;;;;;;18.13;9.60;;;;;;;26.95;31.84;99214.88;5063764;28;20036;-80
2022/09/30 08:46:56;;;;;;;19.10;10.75;;;;;;;25.89;33.47;99243.78;5076701;28;20054;-78
2022/09/30 08:49:48;;;;;;;17.05;9.52;;;;;;;26.18;33.75;99242.31;5042680;28;20052;-77
2022/09/30 08:52:21;;;;;;;20.90;10.18;;;;;;;26.01;33.83;99211.75;5076116;28;20050;-77
2022/09/30 08:54:51;;;;;;;17.83;10.55;;;;;;;25.66;34.92;99224.38;5076338;28;20055;-77
2022/09/30 08:57:20;;;;;;;18.88;11.52;;;;;;;24.96;36.01;99215.75;5075763;28;20143;-77
2022/09/30 08:59:49;;;;;;;18.75;11.38;;;;;;;24.84;36.53;99205.91;5092293;28;20389;-76
2022/09/30 09:02:26;;;;;;;20.35;11.73;;;;;;;24.66;36.84;99198.16;5093743;28;20050;-78
2022/09/30 09:04:57;;;;;;;18.88;11.10;;;;;;;24.95;36.52;99222.28;5078063;28;20090;-76
2022/09/30 09:07:32;;;;;;;20.98;12.43;;;;;;;24.61;37.63;99219.00;5077296;28;20473;-81
2022/09/30 09:10:43;;;;;;;19.35;11.73;;;;;;;24.41;38.10;99210.66;5077815;28;20039;-81
2022/09/30 09:13:17;;;;;;;21.50;11.73;;;;;;;23.85;38.95;99192.94;5042060;28;20050;-77
2022/09/30 09:15:46;;;;;;;23.80;12.32;;;;;;;24.13;39.12;99219.06;5076303;28;20401;-76
2022/09/30 09:18:45;;;;;;;24.40;12.70;;;;;;;24.65;38.01;99215.53;5059550;28;20043;-81
2022/09/30 09:21:32;;;;;;;25.35;12.15;;;;;;;24.19;38.45;99189.00;5059050;28;20074;-79
2022/09/30 09:24:01;;;;;;;20.67;12.40;;;;;;;24.08;39.48;99217.13;5078710;28;20101;-82
2022/09/30 09:26:35;;;;;;;18.35;12.73;;;;;;;23.64;40.40;99214.66;5077298;28;20046;-78
2022/09/30 09:29:35;;;;;;;28.50;12.45;;;;;;;24.02;39.96;99215.44;5041496;28;20081;-82
2022/09/30 09:32:02;;;;;;;26.13;13.18;;;;;;;23.76;40.32;99212.63;5076493;28;20043;-76
2022/09/30 09:34:29;;;;;;;17.80;12.50;;;;;;;23.53;40.98;99199.34;5096491;28;20061;-74
2022/09/30 09:37:13;;;;;;;20.95;12.57;;;;;;;23.61;41.03;99207.03;5076599;28;20122;-76
2022/09/30 09:40:08;;;;;;;26.13;12.63;;;;;;;23.73;41.11;99205.84;5077852;28;20063;-75
2022/09/30 09:42:57;;;;;;;16.63;12.20;;;;;;;23.76;40.95;99204.50;5070000;28;20046;-74
2022/09/30 09:45:27;;;;;;;27.90;13.48;;;;;;;23.38;41.68;99207.28;5094759;28;20441;-79
2022/09/30 09:47:56;;;;;;;;;;;;;;;24.02;40.53;99211.88;5093611;28;20052;-76
2022/09/30 09:50:38;;;;;;;21.48;12.13;;;;;;;23.81;40.78;99205.41;5062083;28;20353;-75
2022/09/30 09:53:23;;;;;;;20.45;11.82;;;;;;;23.61;41.28;99217.88;5077175;28;20063;-76
2022/09/30 09:55:53;;;;;;;17.35;12.60;;;;;;;23.63;41.65;99224.72;5059702;28;20050;-75
2022/09/30 09:58:20;;;;;;;21.70;12.50;;;;;;;24.10;40.72;99225.84;5042152;28;20043;-81
2022/09/30 10:03:27;;;;;;;18.40;11.00;;;;;;;25.02;38.64;99231.84;5070667;28;20435;-79
2022/09/30 10:06:03;;;;;;;21.50;11.15;;;;;;;24.74;38.70;99237.59;5062888;28;20043;-81
2022/09/30 10:08:35;;;;;;;21.00;11.15;;;;;;;24.26;39.64;99227.63;5060592;28;20147;-83
2022/09/30 10:11:03;;;;;;;21.38;13.30;;;;;;;24.16;39.78;99227.53;5059122;28;20044;-81
2022/09/30 10:13:40;;;;;;;21.15;11.20;;;;;;;23.99;40.66;99250.38;5077409;28;20047;-82
2022/09/30 10:16:23;;;;;;;20.42;12.52;;;;;;;23.85;40.86;99235.56;5096305;28;20126;-80
2022/09/30 10:18:49;;;;;;;20.92;11.90;;;;;;;23.60;41.41;99221.66;5051787;28;20343;-85
2022/09/30 10:21:21;;;;;;;27.75;11.85;;;;;;;23.77;41.56;99220.53;5044958;28;20127;-81
2022/09/30 10:23:48;;;;;;;24.05;12.93;;;;;;;23.54;41.87;99220.75;5096793;28;20035;-81
2022/09/30 10:26:14;;;;;;;22.17;13.77;;;;;;;23.21;42.10;99204.56;5058885;28;20046;-80
2022/09/30 10:28:53;;;;;;;25.20;12.60;;;;;;;23.77;41.46;99217.00;5060587;28;20036;-80
2022/09/30 10:31:38;;;;;;;25.80;13.13;;;;;;;23.80;41.30;99228.16;5076997;28;20044;-80
2022/09/30 10:34:22;;;;;;;26.10;12.82;;;;;;;23.57;41.49;99198.56;5077435;28;20135;-78
2022/09/30 10:36:49;;;;;;;26.50;13.60;;;;;;;23.95;41.05;99214.78;5062283;28;20035;-80
2022/09/30 10:39:22;;;;;;;26.77;13.38;;;;;;;24.38;40.26;99222.03;5078923;28;20039;-83
2022/09/30 10:41:49;;;;;;;27.88;14.05;;;;;;;24.17;40.21;99228.34;5097242;28;20376;-79
2022/09/30 10:44:21;;;;;;;26.08;14.38;;;;;;;24.83;39.44;99223.28;5080210;28;20438;-82
2022/09/30 10:46:49;;;;;;;32.38;13.23;;;;;;;25.37;38.50;99229.38;5097396;28;20051;-80
2022/09/30 10:49:28;;;;;;;22.42;13.00;;;;;;;26.70;35.57;99224.94;5097074;28;20165;-80
2022/09/30 10:51:58;;;;;;;17.77;10.05;;;;;;;27.69;33.55;99226.72;5063020;28;20043;-82
2022/09/30 10:54:35;;;;;;;18.90;10.23;;;;;;;27.49;32.86;99224.06;5097903;28;20146;-81
2022/09/30 10:57:04;;;;;;;19.67;10.82;;;;;;;26.59;34.71;99215.09;5062803;28;20039;-78
2022/09/30 10:59:41;;;;;;;20.90;10.68;;;;;;;26.30;34.86;99201.19;5076997;28;20042;-78
2022/09/30 11:02:21;;;;;;;20.58;10.15;;;;;;;25.67;35.78;99210.50;5059836;28;20047;-79
2022/09/30 11:04:54;;;;;;;17.05;10.32;;;;;;;25.65;36.70;99209.94;5078839;28;20056;-78
2022/09/30 11:07:38;;;;;;;18.08;11.30;;;;;;;25.47;36.41;99204.16;5046070;28;20467;-79
2022/09/30 11:10:32;;;;;;;20.27;11.88;;;;;;;25.22;37.24;99221.09;5061365;28;20071;-80
2022/09/30 11:13:10;;;;;;;20.92;11.43;;;;;;;25.39;37.59;99210.09;5078103;28;20130;-79
2022/09/30 11:15:45;;;;;;;18.58;11.13;;;;;;;27.08;34.88;99197.94;5046747;28;20071;-79
2022/09/30 11:18:24;;;;;;;20.60;11.20;;;;;;;28.65;31.73;99229.78;5057623;28;20105;-79
2022/09/30 11:21:00;;;;;;;22.37;11.33;;;;;;;29.79;30.11;99219.94;5040125;28;20078;-80
2022/09/30 11:24:00;;;;;;;20.42;9.93;;;;;;;29.19;30.39;99192.16;5080473;28;20732;-81
2022/09/30 11:26:48;;;;;;;17.98;10.75;;;;;;;29.53;30.23;99239.38;5046638;28;20079;-78
2022/09/30 11:29:32;;;;;;;18.13;9.73;;;;;;;30.42;29.21;99222.09;5055052;28;20036;-79
2022/09/30 11:32:11;;;;;;;18.58;10.98;;;;;;;29.01;30.16;99203.78;5092812;28;20051;-79
2022/09/30 11:35:17;;;;;;;17.58;10.50;;;;;;;28.50;31.53;99199.03;5061187;28;20067;-81
2022/09/30 11:37:55;;;;;;;19.00;10.57;;;;;;;28.05;32.62;99218.41;5033212;28;20074;-83
2022/09/30 11:40:34;;;;;;;19.27;10.60;;;;;;;27.66;33.09;99218.28;5094818;28;20047;-83
2022/09/30 11:43:13;;;;;;;;;;;;;;;26.82;34.31;99239.94;5081452;28;20043;-80
2022/09/30 11:45:55;;;;;;;16.90;9.65;;;;;;;26.37;35.56;99226.25;5078691;28;20574;-80
2022/09/30 11:48:35;;;;;;;18.80;8.70;;;;;;;25.52;36.87;99234.94;5043631;28;20039;-83
2022/09/30 11:51:23;;;;;;;15.85;9.25;;;;;;;25.20;37.86;99225.97;5026873;28;20473;-76
2022/09/30 11:54:20;;;;;;;18.50;10.25;;;;;;;25.00;38.65;99227.75;5056454;28;20450;-78
2022/09/30 11:56:54;;;;;;;18.52;10.85;;;;;;;24.60;39.25;99228.22;5022709;28;20058;-77